Time;durP1;ratioP1;P1;durP2;ratioP2;P2;SDS_P1;SDS_P2;PMS_P1;PMS_P2;Temp;Humidity;BMP_temperature;BMP_pressure;BME280_temperature;BME280_humidity;BME280_pressure;Samples;Min_cycle;Max_cycle;Signal;HPM_P1;HPM_P2
2023/06/18 00:00:00;;;;;;;;;;;;;;;25.72;46.31;100242.88;103532;1286;67646;-82
2023/06/18 00:02:26;;;;;;;;;;;;;;;25.72;46.33;100243.42;103569;1291;62190;-82
2023/06/18 00:04:51;;;;;;;;;;;;;;;25.72;46.36;100247.07;103599;1286;62178;-82
2023/06/18 00:07:17;;;;;;;;;;;;;;;25.71;46.42;100250.70;103632;1288;62618;-82
2023/06/18 00:09:42;;;;;;;;;;;;;;;25.71;46.25;100255.62;103652;1286;62152;-82
2023/06/18 00:12:08;;;;;;;;;;;;;;;25.72;46.46;100262.20;103609;1291;62275;-82
2023/06/18 00:14:33;;;;;;;;;;;;;;;25.72;46.39;100263.85;103590;1287;62275;-82
2023/06/18 00:16:59;;;;;;;;;;;;;;;25.72;46.43;100267.64;103646;1285;62194;-82
2023/06/18 00:19:24;;;;;;;;;;;;;;;25.72;46.52;100272.50;103536;1285;62613;-82
2023/06/18 00:21:49;;;;;;;;;;;;;;;25.71;46.49;100273.79;103703;1286;62198;-82
2023/06/18 00:24:15;;;;;;;;;;;;;;;25.71;46.33;100272.38;103523;1289;62172;-82
2023/06/18 00:26:41;;;;;;;;;;;;;;;25.71;46.44;100271.50;103590;1286;63419;-82
2023/06/18 00:29:07;;;;;;;;;;;;;;;25.71;46.42;100272.58;103628;1285;62136;-82
2023/06/18 00:31:32;;;;;;;;;;;;;;;25.71;46.55;100275.68;103550;1291;62295;-82
2023/06/18 00:34:04;;;;;;;;;;;;;;;25.71;46.45;100276.20;103715;1291;62196;-82
2023/06/18 00:36:31;;;;;;;;;;;;;;;25.71;46.38;100277.10;103557;1289;67584;-82
2023/06/18 00:38:57;;;;;;;;;;;;;;;25.71;46.35;100278.55;103688;1288;63237;-82
2023/06/18 00:41:27;;;;;;;;;;;;;;;25.70;46.45;100275.54;103584;1284;62174;-82
2023/06/18 00:43:53;;;;;;;;;;;;;;;25.70;46.43;100277.49;103586;1285;64822;-82
2023/06/18 00:46:20;;;;;;;;;;;;;;;25.70;46.57;100277.34;103568;1291;62222;-82
2023/06/18 00:48:45;;;;;;;;;;;;;;;25.70;46.64;100278.08;103618;1286;62206;-82
2023/06/18 00:51:11;;;;;;;;;;;;;;;25.70;46.54;100280.27;103658;1286;62427;-82
2023/06/18 00:53:37;;;;;;;;;;;;;;;25.70;46.62;100283.85;103742;1285;62095;-83
2023/06/18 00:56:02;;;;;;;;;;;;;;;25.70;46.73;100279.73;103574;1289;62294;-83
2023/06/18 00:58:28;;;;;;;;;;;;;;;25.69;46.65;100277.60;103590;1291;63295;-82
2023/06/18 01:00:54;;;;;;;;;;;;;;;25.69;46.67;100274.36;103598;1286;63411;-82
2023/06/18 01:03:20;;;;;;;;;;;;;;;25.70;46.51;100273.61;103475;1291;62604;-82
2023/06/18 01:05:50;;;;;;;;;;;;;;;25.70;46.62;100280.64;103583;1291;62238;-82
2023/06/18 01:08:17;;;;;;;;;;;;;;;25.70;46.75;100280.46;103684;1289;66731;-82
2023/06/18 01:10:43;;;;;;;;;;;;;;;25.70;46.68;100290.20;103653;1286;62088;-82
2023/06/18 01:13:10;;;;;;;;;;;;;;;25.69;46.60;100293.81;103548;1292;62333;-82
2023/06/18 01:15:37;;;;;;;;;;;;;;;25.69;46.75;100294.19;103699;1288;62135;-82
2023/06/18 01:18:06;;;;;;;;;;;;;;;25.69;46.65;100299.09;103681;1288;67711;-82
2023/06/18 01:20:32;;;;;;;;;;;;;;;25.69;46.76;100295.33;103569;1289;62181;-82
2023/06/18 01:23:00;;;;;;;;;;;;;;;25.69;46.78;100294.72;103527;1291;62379;-82
2023/06/18 01:25:26;;;;;;;;;;;;;;;25.69;46.81;100295.13;103680;1289;64717;-82
2023/06/18 01:27:53;;;;;;;;;;;;;;;25.69;46.67;100294.27;103569;1292;62280;-82
2023/06/18 01:30:20;;;;;;;;;;;;;;;25.68;46.82;100295.73;103577;1289;62145;-82
2023/06/18 01:32:46;;;;;;;;;;;;;;;25.68;46.84;100297.92;103075;1294;62327;-82
2023/06/18 01:35:17;;;;;;;;;;;;;;;25.68;46.75;100297.18;103122;1296;62193;-82
2023/06/18 01:37:52;;;;;;;;;;;;;;;25.68;46.68;100300.42;103055;1294;66673;-82
2023/06/18 01:40:26;;;;;;;;;;;;;;;25.69;46.71;100301.30;103046;1289;62200;-82
2023/06/18 01:42:54;;;;;;;;;;;;;;;25.69;46.82;100302.20;103102;1293;62145;-82
2023/06/18 01:45:30;;;;;;;;;;;;;;;25.68;46.95;100302.75;103345;1293;65043;-81
2023/06/18 01:47:57;;;;;;;;;;;;;;;25.68;47.04;100301.33;103111;1294;66765;-82
2023/06/18 01:50:22;;;;;;;;;;;;;;;25.68;46.97;100302.77;103235;1294;62203;-82
2023/06/18 01:52:49;;;;;;;;;;;;;;;25.68;46.84;100301.36;103097;1294;63556;-81
2023/06/18 01:55:17;;;;;;;;;;;;;;;25.68;46.90;100301.19;103105;1295;62106;-82
2023/06/18 01:57:42;;;;;;;;;;;;;;;25.68;46.98;100301.73;103038;1293;67657;-81
2023/06/18 02:00:09;;;;;;;;;;;;;;;25.68;46.90;100302.30;103322;1293;62265;-82
2023/06/18 02:02:34;;;;;;;;;;;;;;;25.68;47.07;100305.89;103274;1294;62300;-82
2023/06/18 02:05:00;;;;;;;;;;;;;;;25.67;46.94;100302.88;103070;1295;62238;-82
2023/06/18 02:07:26;;;;;;;;;;;;;;;25.67;46.97;100304.45;103059;1294;62581;-82
2023/06/18 02:09:51;;;;;;;;;;;;;;;25.68;46.93;100307.14;103008;1294;63114;-81
2023/06/18 02:12:17;;;;;;;;;;;;;;;25.68;47.05;100308.62;103274;1290;62247;-81
2023/06/18 02:14:42;;;;;;;;;;;;;;;25.67;47.09;100304.13;103266;1294;62307;-82
2023/06/18 02:17:08;;;;;;;;;;;;;;;25.67;47.09;100303.45;103499;1294;62186;-82
2023/06/18 02:19:34;;;;;;;;;;;;;;;25.66;47.03;100302.23;103638;1288;62210;-82
2023/06/18 02:21:59;;;;;;;;;;;;;;;25.67;47.13;100304.20;103688;1288;62222;-83
2023/06/18 02:24:25;;;;;;;;;;;;;;;25.67;47.09;100299.49;103756;1288;63237;-83
2023/06/18 02:26:50;;;;;;;;;;;;;;;25.66;46.97;100300.44;103581;1291;62092;-82
2023/06/18 02:29:15;;;;;;;;;;;;;;;25.66;47.10;100303.67;103707;1292;62287;-82
2023/06/18 02:31:41;;;;;;;;;;;;;;;25.66;47.02;100303.17;103603;1288;63409;-82
2023/06/18 02:34:06;;;;;;;;;;;;;;;25.66;47.07;100302.97;103534;1289;62213;-82
2023/06/18 02:36:34;;;;;;;;;;;;;;;25.66;47.06;100306.07;103594;1291;62134;-82
2023/06/18 02:38:59;;;;;;;;;;;;;;;25.66;47.08;100305.53;103689;1288;62193;-82
2023/06/18 02:41:26;;;;;;;;;;;;;;;25.66;47.13;100304.08;103542;1285;62531;-82
2023/06/18 02:43:53;;;;;;;;;;;;;;;25.66;47.20;100304.48;103594;1290;62213;-82
2023/06/18 02:46:19;;;;;;;;;;;;;;;25.66;47.22;100310.92;103583;1291;62229;-82
2023/06/18 02:48:44;;;;;;;;;;;;;;;25.66;47.24;100312.89;103574;1289;62280;-82
2023/06/18 02:51:10;;;;;;;;;;;;;;;25.66;47.19;100316.69;103561;1290;62116;-82
2023/06/18 02:53:35;;;;;;;;;;;;;;;25.66;47.30;100317.05;103536;1292;62899;-82
2023/06/18 02:56:01;;;;;;;;;;;;;;;25.66;47.11;100319.95;103678;1285;62246;-82
2023/06/18 02:58:29;;;;;;;;;;;;;;;25.66;47.17;100316.88;103652;1300;62209;-82
2023/06/18 03:00:55;;;;;;;;;;;;;;;25.66;47.38;100317.42;103648;1285;62179;-83
2023/06/18 03:03:21;;;;;;;;;;;;;;;25.66;47.24;100321.20;103589;1291;62127;-82
2023/06/18 03:05:47;;;;;;;;;;;;;;;25.66;47.26;100327.31;103685;1288;62202;-82
2023/06/18 03:08:13;;;;;;;;;;;;;;;25.66;47.38;100325.33;103597;1291;62246;-82
2023/06/18 03:10:38;;;;;;;;;;;;;;;25.66;47.45;100326.41;103556;1289;62222;-82
2023/06/18 03:13:04;;;;;;;;;;;;;;;25.66;47.17;100326.39;103518;1292;62283;-82
2023/06/18 03:15:29;;;;;;;;;;;;;;;25.66;47.13;100326.20;103638;1286;62783;-82
2023/06/18 03:17:55;;;;;;;;;;;;;;;25.66;47.30;100324.80;103665;1289;62216;-81
2023/06/18 03:20:20;;;;;;;;;;;;;;;25.66;47.31;100326.73;103550;1289;62233;-82
2023/06/18 03:22:46;;;;;;;;;;;;;;;25.67;47.47;100327.08;103615;1292;62241;-82
2023/06/18 03:25:12;;;;;;;;;;;;;;;25.67;47.25;100335.91;103711;1292;62982;-82
2023/06/18 03:27:38;;;;;;;;;;;;;;;25.67;47.24;100336.80;103567;1286;62125;-82
2023/06/18 03:30:03;;;;;;;;;;;;;;;25.67;47.47;100334.44;103629;1299;62181;-81
2023/06/18 03:32:29;;;;;;;;;;;;;;;25.67;47.41;100339.13;103561;1291;62954;-82
2023/06/18 03:34:55;;;;;;;;;;;;;;;25.67;47.25;100342.17;103633;1287;62643;-82
2023/06/18 03:37:20;;;;;;;;;;;;;;;25.67;47.39;100341.99;103395;1291;63984;-82
2023/06/18 03:39:46;;;;;;;;;;;;;;;25.66;47.57;100340.60;103520;1292;62203;-81
2023/06/18 03:42:12;;;;;;;;;;;;;;;25.67;47.33;100343.09;103572;1286;63002;-82
2023/06/18 03:44:37;;;;;;;;;;;;;;;25.67;47.38;100343.81;103599;1289;62083;-80
2023/06/18 03:47:03;;;;;;;;;;;;;;;25.67;47.18;100340.76;103492;1289;62208;-81
2023/06/18 03:49:29;;;;;;;;;;;;;;;25.67;47.39;100341.83;103626;1286;62894;-81
2023/06/18 03:51:55;;;;;;;;;;;;;;;25.67;47.53;100336.06;103659;1288;62222;-81
2023/06/18 03:54:24;;;;;;;;;;;;;;;25.67;47.36;100334.41;103626;1290;62107;-81
2023/06/18 03:56:50;;;;;;;;;;;;;;;25.67;47.47;100335.15;103305;1293;62247;-81
2023/06/18 03:59:15;;;;;;;;;;;;;;;25.67;47.31;100334.02;103023;1295;62195;-81
2023/06/18 04:01:41;;;;;;;;;;;;;;;25.67;47.48;100336.91;103078;1289;62197;-81
2023/06/18 04:04:33;;;;;;;;;;;;;;;25.67;47.41;100338.35;102999;1294;62125;-82
2023/06/18 04:06:58;;;;;;;;;;;;;;;25.68;47.25;100347.29;102623;1304;62116;-82
2023/06/18 04:09:23;;;;;;;;;;;;;;;25.67;47.29;100347.89;102623;1299;62311;-82
2023/06/18 04:11:49;;;;;;;;;;;;;;;25.68;47.21;100351.79;102554;1302;63267;-82
2023/06/18 04:14:15;;;;;;;;;;;;;;;25.69;47.24;100355.17;102559;1300;63442;-82
2023/06/18 04:16:40;;;;;;;;;;;;;;;25.69;47.35;100363.98;102577;1301;62239;-82
2023/06/18 04:19:06;;;;;;;;;;;;;;;25.69;47.34;100369.02;102589;1302;62136;-82
2023/06/18 04:21:34;;;;;;;;;;;;;;;25.69;47.34;100377.08;102564;1300;62190;-81
2023/06/18 04:24:02;;;;;;;;;;;;;;;25.70;47.25;100379.71;102607;1300;66626;-80
2023/06/18 04:26:27;;;;;;;;;;;;;;;25.71;47.17;100379.48;102628;1300;62329;-82
2023/06/18 04:28:52;;;;;;;;;;;;;;;25.71;47.34;100384.33;102782;1298;62179;-83
2023/06/18 04:31:18;;;;;;;;;;;;;;;25.71;47.27;100384.48;102843;1298;62194;-83
2023/06/18 04:33:43;;;;;;;;;;;;;;;25.71;47.62;100384.46;102816;1292;62380;-83
2023/06/18 04:36:09;;;;;;;;;;;;;;;25.72;47.35;100384.57;102978;1299;62426;-83
2023/06/18 04:38:35;;;;;;;;;;;;;;;25.72;47.39;100386.70;102955;1292;62264;-83
2023/06/18 04:41:01;;;;;;;;;;;;;;;25.73;47.44;100388.09;102995;1298;62224;-83
2023/06/18 04:43:26;;;;;;;;;;;;;;;25.74;47.26;100392.53;102995;1286;62413;-83
2023/06/18 04:45:52;;;;;;;;;;;;;;;25.74;47.25;100389.23;103207;1294;62230;-83
2023/06/18 04:48:18;;;;;;;;;;;;;;;25.75;47.31;100394.38;103022;1289;62362;-83
2023/06/18 04:50:44;;;;;;;;;;;;;;;25.76;47.42;100397.54;103114;1291;62188;-83
2023/06/18 04:53:10;;;;;;;;;;;;;;;25.77;47.33;100400.85;103074;1290;62263;-83
2023/06/18 04:55:37;;;;;;;;;;;;;;;25.78;47.35;100405.83;103074;1289;62660;-83
2023/06/18 04:58:04;;;;;;;;;;;;;;;25.79;47.33;100405.92;103118;1290;67689;-83
2023/06/18 05:00:29;;;;;;;;;;;;;;;25.79;47.40;100411.28;103257;1293;62371;-83
2023/06/18 05:02:57;;;;;;;;;;;;;;;25.79;47.25;100408.75;103049;1290;62282;-83
2023/06/18 05:05:22;;;;;;;;;;;;;;;25.80;47.23;100412.11;103066;1305;62153;-83
2023/06/18 05:07:48;;;;;;;;;;;;;;;25.80;47.42;100416.43;103189;1289;63670;-83
2023/06/18 05:10:13;;;;;;;;;;;;;;;25.80;47.30;100414.41;103060;1291;62374;-83
2023/06/18 05:12:39;;;;;;;;;;;;;;;25.81;47.07;100417.21;103019;1291;62318;-83
2023/06/18 05:15:05;;;;;;;;;;;;;;;25.81;47.08;100421.52;103070;1297;62285;-84
2023/06/18 05:17:31;;;;;;;;;;;;;;;25.81;47.04;100423.57;103337;1290;64844;-83
2023/06/18 05:19:56;;;;;;;;;;;;;;;25.81;47.03;100423.94;103651;1288;63397;-83
2023/06/18 05:22:21;;;;;;;;;;;;;;;25.80;47.12;100429.35;103607;1290;63351;-83
2023/06/18 05:24:47;;;;;;;;;;;;;;;25.81;47.21;100430.23;103476;1288;62213;-83
2023/06/18 05:27:13;;;;;;;;;;;;;;;25.82;47.27;100428.17;103564;1286;62210;-83
2023/06/18 05:29:38;;;;;;;;;;;;;;;25.82;47.11;100430.17;103539;1287;63942;-83
2023/06/18 05:32:04;;;;;;;;;;;;;;;25.82;47.13;100432.27;103559;1286;63162;-83
2023/06/18 05:34:30;;;;;;;;;;;;;;;25.82;47.04;100437.88;103619;1286;62290;-83
2023/06/18 05:36:57;;;;;;;;;;;;;;;25.82;47.27;100439.45;103546;1285;62285;-82
2023/06/18 05:39:22;;;;;;;;;;;;;;;25.83;47.10;100439.96;103467;1285;63428;-82
2023/06/18 05:41:50;;;;;;;;;;;;;;;25.83;47.15;100444.09;103574;1290;62172;-82
2023/06/18 05:44:15;;;;;;;;;;;;;;;25.83;47.08;100444.66;103476;1291;67666;-82
2023/06/18 05:46:41;;;;;;;;;;;;;;;25.83;47.20;100448.39;103662;1290;62214;-83
2023/06/18 05:49:06;;;;;;;;;;;;;;;25.84;47.06;100446.10;103594;1287;62286;-84
2023/06/18 05:51:32;;;;;;;;;;;;;;;25.85;46.95;100448.73;103455;1285;62211;-83
2023/06/18 05:53:57;;;;;;;;;;;;;;;25.86;46.96;100447.94;103561;1285;62780;-82
2023/06/18 05:56:23;;;;;;;;;;;;;;;25.86;47.09;100450.98;103445;1287;63433;-82
2023/06/18 05:58:48;;;;;;;;;;;;;;;25.87;46.98;100448.94;103625;1285;62194;-82
2023/06/18 06:01:14;;;;;;;;;;;;;;;25.88;47.14;100448.30;103497;1285;62204;-82
2023/06/18 06:03:40;;;;;;;;;;;;;;;25.88;47.10;100452.37;103468;1286;62775;-82
2023/06/18 06:06:05;;;;;;;;;;;;;;;25.88;46.94;100451.48;103593;1289;62230;-82
2023/06/18 06:08:31;;;;;;;;;;;;;;;25.89;47.16;100448.33;103579;1289;62133;-82
2023/06/18 06:10:56;;;;;;;;;;;;;;;25.90;47.25;100454.38;103566;1285;63360;-82
2023/06/18 06:13:22;;;;;;;;;;;;;;;25.91;47.23;100457.00;103539;1285;62269;-82
2023/06/18 06:15:47;;;;;;;;;;;;;;;25.91;47.18;100461.13;103537;1290;62801;-81
2023/06/18 06:18:13;;;;;;;;;;;;;;;25.91;47.00;100464.67;103629;1291;62251;-81
2023/06/18 06:20:38;;;;;;;;;;;;;;;25.91;47.12;100463.83;103519;1286;67658;-82
2023/06/18 06:23:04;;;;;;;;;;;;;;;25.91;47.21;100462.61;103638;1285;62170;-82
2023/06/18 06:25:29;;;;;;;;;;;;;;;25.91;47.13;100465.81;103600;1285;63183;-82
2023/06/18 06:27:55;;;;;;;;;;;;;;;25.92;47.07;100462.48;103606;1288;62206;-82
2023/06/18 06:30:20;;;;;;;;;;;;;;;25.92;47.07;100465.86;103620;1291;62207;-82
2023/06/18 06:32:46;;;;;;;;;;;;;;;25.92;47.21;100466.96;103478;1290;62945;-82
2023/06/18 06:35:12;;;;;;;;;;;;;;;25.92;47.06;100472.16;103583;1286;62118;-82
2023/06/18 06:37:38;;;;;;;;;;;;;;;25.92;47.19;100469.50;103618;1289;62203;-82
2023/06/18 06:40:04;;;;;;;;;;;;;;;25.91;47.44;100472.08;103498;1286;62769;-82
2023/06/18 06:42:29;;;;;;;;;;;;;;;25.91;47.32;100466.66;103432;1290;63311;-82
2023/06/18 06:44:54;;;;;;;;;;;;;;;25.92;47.25;100464.27;103683;1289;62200;-82
2023/06/18 06:47:20;;;;;;;;;;;;;;;25.92;47.25;100465.13;103559;1290;62871;-83
2023/06/18 06:49:45;;;;;;;;;;;;;;;25.93;47.25;100467.77;103561;1291;63537;-82
2023/06/18 06:52:11;;;;;;;;;;;;;;;25.94;47.35;100470.25;103494;1287;63570;-82
2023/06/18 06:54:37;;;;;;;;;;;;;;;25.94;47.35;100471.66;103491;1285;62204;-82
2023/06/18 06:57:04;;;;;;;;;;;;;;;25.94;47.39;100473.29;103541;1288;62198;-82
2023/06/18 06:59:30;;;;;;;;;;;;;;;25.95;47.38;100475.00;103495;1285;62545;-82
2023/06/18 07:01:56;;;;;;;;;;;;;;;25.95;47.20;100476.07;103459;1285;62224;-81
2023/06/18 07:04:22;;;;;;;;;;;;;;;25.96;47.29;100478.35;103391;1285;63418;-82
2023/06/18 07:06:49;;;;;;;;;;;;;;;25.96;47.30;100476.02;103530;1291;62470;-82
2023/06/18 07:09:14;;;;;;;;;;;;;;;25.96;47.47;100478.55;103670;1290;63301;-82
2023/06/18 07:11:40;;;;;;;;;;;;;;;25.96;47.43;100480.69;103533;1286;63380;-82
2023/06/18 07:14:06;;;;;;;;;;;;;;;25.96;47.42;100480.85;103122;1285;674150;-82
2023/06/18 07:16:31;;;;;;;;;;;;;;;25.96;47.26;100480.66;103686;1285;62100;-82
2023/06/18 07:18:57;;;;;;;;;;;;;;;25.97;47.33;100478.66;103454;1286;63408;-82
2023/06/18 07:21:23;;;;;;;;;;;;;;;25.97;47.38;100473.42;103503;1290;62294;-82
2023/06/18 07:23:49;;;;;;;;;;;;;;;25.97;47.30;100477.15;103550;1291;62164;-82
2023/06/18 07:26:14;;;;;;;;;;;;;;;25.97;47.40;100480.59;103569;1285;62510;-82
2023/06/18 07:28:40;;;;;;;;;;;;;;;25.97;47.32;100480.94;103467;1287;63405;-82
2023/06/18 07:31:05;;;;;;;;;;;;;;;25.97;47.31;100481.10;103505;1286;62159;-82
2023/06/18 07:33:31;;;;;;;;;;;;;;;25.97;47.55;100483.42;103471;1290;62211;-82
2023/06/18 07:35:56;;;;;;;;;;;;;;;25.98;47.38;100479.98;103505;1289;62279;-82
2023/06/18 07:38:22;;;;;;;;;;;;;;;25.98;47.32;100483.71;103552;1291;62143;-82
2023/06/18 07:40:48;;;;;;;;;;;;;;;25.98;47.30;100487.16;103487;1285;62290;-81
2023/06/18 07:43:13;;;;;;;;;;;;;;;25.98;47.26;100488.73;103504;1285;62164;-82
2023/06/18 07:45:39;;;;;;;;;;;;;;;25.98;47.27;100486.02;103671;1285;62188;-82
2023/06/18 07:48:05;;;;;;;;;;;;;;;25.99;47.53;100485.39;103507;1290;62203;-82
2023/06/18 07:50:32;;;;;;;;;;;;;;;26.00;47.33;100482.86;103483;1285;62246;-82
2023/06/18 07:52:58;;;;;;;;;;;;;;;26.00;47.56;100483.40;103473;1285;63353;-82
2023/06/18 07:55:23;;;;;;;;;;;;;;;26.00;47.28;100484.98;103576;1289;62246;-82
2023/06/18 07:57:49;;;;;;;;;;;;;;;26.01;47.65;100483.31;103507;1285;62312;-82
2023/06/18 08:00:14;;;;;;;;;;;;;;;26.00;47.35;100481.69;103502;1285;62329;-83
2023/06/18 08:02:40;;;;;;;;;;;;;;;26.01;47.52;100483.77;103672;1285;63734;-81
2023/06/18 08:05:07;;;;;;;;;;;;;;;26.02;47.32;100482.65;103485;1285;62138;-81
2023/06/18 08:07:33;;;;;;;;;;;;;;;26.02;47.37;100486.75;103648;1285;62009;-82
2023/06/18 08:09:58;;;;;;;;;;;;;;;26.02;47.41;100487.27;103493;1290;62208;-82
2023/06/18 08:12:24;;;;;;;;;;;;;;;26.03;47.41;100488.90;103581;1285;62123;-82
2023/06/18 08:14:49;;;;;;;;;;;;;;;26.03;47.27;100487.95;103494;1290;62165;-82
2023/06/18 08:17:17;;;;;;;;;;;;;;;26.04;47.49;100489.53;103513;1285;62223;-82
2023/06/18 08:19:45;;;;;;;;;;;;;;;26.03;47.55;100487.94;103410;1285;62124;-82
2023/06/18 08:22:19;;;;;;;;;;;;;;;26.03;47.38;100493.20;103583;1286;62295;-82
2023/06/18 08:24:45;;;;;;;;;;;;;;;26.03;47.35;100495.89;103530;1285;63919;-82
2023/06/18 08:27:12;;;;;;;;;;;;;;;26.02;47.46;100493.96;103475;1286;62214;-82
2023/06/18 08:29:37;;;;;;;;;;;;;;;26.02;47.40;100498.27;103585;1290;62234;-82
2023/06/18 08:32:06;;;;;;;;;;;;;;;26.03;47.38;100500.05;103488;1287;62223;-82
2023/06/18 08:34:32;;;;;;;;;;;;;;;26.03;47.49;100500.21;103473;1287;64881;-82
2023/06/18 08:36:57;;;;;;;;;;;;;;;26.03;47.40;100500.55;103671;1289;62214;-83
2023/06/18 08:39:23;;;;;;;;;;;;;;;26.03;47.30;100499.10;103612;1285;62269;-82
2023/06/18 08:41:49;;;;;;;;;;;;;;;26.03;47.40;100501.27;103566;1285;63358;-82
2023/06/18 08:44:15;;;;;;;;;;;;;;;26.03;47.56;100502.92;103533;1285;62133;-82
2023/06/18 08:46:41;;;;;;;;;;;;;;;26.03;47.42;100500.73;103619;1290;62160;-82
2023/06/18 08:49:06;;;;;;;;;;;;;;;26.03;47.48;100499.70;103639;1284;66699;-82
2023/06/18 08:51:32;;;;;;;;;;;;;;;26.04;47.55;100501.77;103501;1285;62262;-82
2023/06/18 08:54:03;;;;;;;;;;;;;;;26.03;47.48;100499.68;103487;1287;62186;-82
2023/06/18 08:56:29;;;;;;;;;;;;;;;26.03;47.65;100500.23;103578;1289;64837;-82
2023/06/18 08:58:57;;;;;;;;;;;;;;;26.03;47.62;100497.69;103465;1290;62271;-82
2023/06/18 09:01:26;;;;;;;;;;;;;;;26.03;47.53;100496.98;103345;1285;62208;-83
2023/06/18 09:03:51;;;;;;;;;;;;;;;26.03;47.51;100494.64;103567;1284;62107;-83
2023/06/18 09:06:17;;;;;;;;;;;;;;;26.04;47.54;100492.05;103517;1288;62287;-83
2023/06/18 09:08:42;;;;;;;;;;;;;;;26.03;47.53;100487.91;103495;1285;62255;-83
2023/06/18 09:11:08;;;;;;;;;;;;;;;26.04;47.66;100492.58;103577;1284;63387;-83
2023/06/18 09:13:33;;;;;;;;;;;;;;;26.04;47.73;100490.72;103543;1285;62149;-83
2023/06/18 09:15:59;;;;;;;;;;;;;;;26.04;47.50;100493.59;103514;1285;62179;-82
2023/06/18 09:18:25;;;;;;;;;;;;;;;26.05;47.44;100489.61;103434;1285;63453;-83
2023/06/18 09:20:54;;;;;;;;;;;;;;;26.05;47.41;100487.25;103515;1286;62447;-82
2023/06/18 09:23:20;;;;;;;;;;;;;;;26.05;47.54;100489.04;103543;1287;62201;-82
2023/06/18 09:25:52;;;;;;;;;;;;;;;26.05;47.43;100484.31;103522;1286;62172;-82
2023/06/18 09:28:20;;;;;;;;;;;;;;;26.05;47.56;100483.02;103557;1290;65980;-82
2023/06/18 09:30:53;;;;;;;;;;;;;;;26.06;47.65;100480.10;103584;1285;67788;-82
2023/06/18 09:33:31;;;;;;;;;;;;;;;26.06;47.46;100475.73;103596;1285;62107;-81
2023/06/18 09:36:07;;;;;;;;;;;;;;;26.07;47.43;100472.64;103542;1285;61943;-82
2023/06/18 09:38:33;;;;;;;;;;;;;;;26.07;47.53;100474.77;103461;1290;64855;-82
2023/06/18 09:40:59;;;;;;;;;;;;;;;26.07;47.55;100475.31;103538;1285;66727;-82
2023/06/18 09:43:35;;;;;;;;;;;;;;;26.08;47.62;100471.08;103541;1286;62211;-82
2023/06/18 09:46:02;;;;;;;;;;;;;;;26.07;47.52;100464.42;103544;1286;62188;-81
2023/06/18 09:48:28;;;;;;;;;;;;;;;26.08;47.43;100459.30;103501;1285;63731;-82
2023/06/18 09:50:54;;;;;;;;;;;;;;;26.08;47.50;100457.52;103487;1286;62201;-82
2023/06/18 09:53:19;;;;;;;;;;;;;;;26.08;47.41;100459.50;103499;1285;62273;-82
2023/06/18 09:55:45;;;;;;;;;;;;;;;26.08;47.41;100462.38;103490;1285;62312;-82
2023/06/18 09:58:10;;;;;;;;;;;;;;;26.08;47.58;100464.93;103516;1285;63626;-82
2023/06/18 10:00:36;;;;;;;;;;;;;;;26.08;47.61;100461.14;103462;1285;64155;-82
2023/06/18 10:03:06;;;;;;;;;;;;;;;26.08;47.54;100456.30;103470;1290;62186;-82
2023/06/18 10:05:31;;;;;;;;;;;;;;;26.08;47.50;100452.70;103503;1285;62177;-82
2023/06/18 10:07:57;;;;;;;;;;;;;;;26.08;47.54;100452.31;103517;1285;62459;-83
2023/06/18 10:10:23;;;;;;;;;;;;;;;26.07;47.62;100454.89;103486;1286;62194;-82
2023/06/18 10:12:48;;;;;;;;;;;;;;;26.08;47.54;100453.37;103673;1289;62177;-82
2023/06/18 10:15:14;;;;;;;;;;;;;;;26.08;47.43;100448.91;103507;1285;62307;-82
2023/06/18 10:17:45;;;;;;;;;;;;;;;26.08;47.59;100439.14;103569;1289;63611;-81
2023/06/18 10:20:11;;;;;;;;;;;;;;;26.08;47.57;100438.80;103463;1290;62141;-82
2023/06/18 10:22:41;;;;;;;;;;;;;;;26.08;47.66;100433.23;103519;1285;63948;-82
2023/06/18 10:25:07;;;;;;;;;;;;;;;26.07;47.43;100436.48;103562;1289;66449;-82
2023/06/18 10:27:33;;;;;;;;;;;;;;;26.07;47.28;100435.96;103523;1286;62293;-82
2023/06/18 10:29:59;;;;;;;;;;;;;;;26.07;47.45;100431.42;103504;1286;63335;-82
2023/06/18 10:32:26;;;;;;;;;;;;;;;26.08;47.50;100420.41;103531;1285;62102;-83
2023/06/18 10:34:52;;;;;;;;;;;;;;;26.07;47.41;100418.44;103533;1290;62185;-82
2023/06/18 10:37:17;;;;;;;;;;;;;;;26.08;47.52;100413.00;103515;1285;62190;-82
2023/06/18 10:39:44;;;;;;;;;;;;;;;26.08;47.40;100405.09;103578;1285;62848;-82
2023/06/18 10:42:13;;;;;;;;;;;;;;;26.08;47.31;100406.71;103473;1287;62291;-82
2023/06/18 10:44:48;;;;;;;;;;;;;;;26.08;47.40;100403.80;103676;1285;62188;-82
2023/06/18 10:47:20;;;;;;;;;;;;;;;26.08;47.49;100401.09;103595;1285;62003;-82
2023/06/18 10:50:02;;;;;;;;;;;;;;;26.08;47.24;100399.98;103593;1289;62079;-82
2023/06/18 10:52:30;;;;;;;;;;;;;;;26.08;47.26;100401.78;103456;1287;64715;-83
2023/06/18 10:55:15;;;;;;;;;;;;;;;26.08;47.30;100400.70;103512;1285;66897;-82
2023/06/18 10:57:45;;;;;;;;;;;;;;;26.08;47.45;100404.28;103524;1285;62101;-82
2023/06/18 11:00:13;;;;;;;;;;;;;;;26.08;47.40;100407.19;103520;1286;62204;-82
2023/06/18 11:02:39;;;;;;;;;;;;;;;26.08;47.31;100406.48;103590;1285;64884;-82
2023/06/18 11:05:05;;;;;;;;;;;;;;;26.08;47.21;100404.15;103467;1290;62162;-82
2023/06/18 11:07:31;;;;;;;;;;;;;;;26.08;47.27;100408.61;103486;1285;62371;-82
2023/06/18 11:09:58;;;;;;;;;;;;;;;26.08;47.27;100414.59;103453;1290;62517;-82
2023/06/18 11:12:27;;;;;;;;;;;;;;;26.08;47.54;100415.88;103575;1286;62106;-81
2023/06/18 11:15:06;;;;;;;;;;;;;;;26.08;47.39;100414.28;103413;1287;66516;-82
2023/06/18 11:17:32;;;;;;;;;;;;;;;26.08;47.42;100418.23;103440;1288;62712;-82
2023/06/18 11:19:58;;;;;;;;;;;;;;;26.07;47.39;100418.44;103655;1285;62113;-82
2023/06/18 11:22:24;;;;;;;;;;;;;;;26.08;47.29;100420.38;103478;1285;63188;-82
2023/06/18 11:24:50;;;;;;;;;;;;;;;26.08;47.41;100423.09;103469;1285;62070;-82
2023/06/18 11:27:15;;;;;;;;;;;;;;;26.08;47.23;100422.71;103543;1290;62268;-82
2023/06/18 11:29:41;;;;;;;;;;;;;;;26.08;47.37;100426.85;103658;1285;62194;-82
2023/06/18 11:32:13;;;;;;;;;;;;;;;26.08;47.19;100430.81;103421;1294;62237;-82
2023/06/18 11:34:42;;;;;;;;;;;;;;;26.08;47.21;100422.54;103495;1285;63863;-82
2023/06/18 11:37:08;;;;;;;;;;;;;;;26.08;47.31;100421.11;103690;1285;67671;-82
2023/06/18 11:39:33;;;;;;;;;;;;;;;26.08;47.42;100420.73;103510;1288;63395;-82
2023/06/18 11:42:15;;;;;;;;;;;;;;;26.08;47.16;100423.63;103485;1285;62281;-82
2023/06/18 11:44:50;;;;;;;;;;;;;;;26.08;47.22;100427.23;103500;1290;63693;-82
2023/06/18 11:47:16;;;;;;;;;;;;;;;26.08;47.41;100429.71;103560;1286;66762;-82
2023/06/18 11:49:42;;;;;;;;;;;;;;;26.08;47.33;100431.02;103562;1285;62178;-82
2023/06/18 11:52:07;;;;;;;;;;;;;;;26.08;47.49;100432.45;103504;1289;61964;-82
2023/06/18 11:54:40;;;;;;;;;;;;;;;26.08;47.31;100426.34;103442;1285;62275;-82
2023/06/18 11:57:06;;;;;;;;;;;;;;;26.08;47.26;100426.66;103688;1284;67696;-82
2023/06/18 11:59:32;;;;;;;;;;;;;;;26.08;47.39;100420.00;103520;1289;62267;-82
2023/06/18 12:02:08;;;;;;;;;;;;;;;26.08;47.29;100419.30;103482;1290;62194;-82
2023/06/18 12:04:34;;;;;;;;;;;;;;;26.08;47.27;100414.24;103564;1287;63833;-82
2023/06/18 12:07:00;;;;;;;;;;;;;;;26.08;47.31;100414.96;103584;1285;62273;-82
2023/06/18 12:09:27;;;;;;;;;;;;;;;26.09;47.39;100419.23;103563;1286;63358;-82
2023/06/18 12:11:56;;;;;;;;;;;;;;;26.09;47.19;100419.91;103543;1285;62140;-82
2023/06/18 12:14:33;;;;;;;;;;;;;;;26.09;47.11;100418.30;103578;1289;64741;-82
2023/06/18 12:16:59;;;;;;;;;;;;;;;26.10;47.17;100416.08;103750;1285;67678;-82
2023/06/18 12:19:26;;;;;;;;;;;;;;;26.10;47.24;100411.85;103640;1286;62182;-82
2023/06/18 12:21:51;;;;;;;;;;;;;;;26.10;47.10;100408.80;103562;1285;63406;-82